Copeland, Alabama
Current Conditions -  °F | °C
As of 2:58 PM on Thursday 23 Oct 2014 (Local Time) from KMEI Reporting Station
Clear Clear  
Wind Chill: 70°   Ceiling: Unl
Heat Index: 70°   Visibility: 10mi
Dew Point: 39°   Wind: 6mph
Humidity: 32%   Direction: 360°N
Pressure: 30.08"   Gusts: NA
Location:  31.6272°N, 88.354°W
Report Text: KMEI 231958Z 36005KT 10SM CLR 21/04 A3008 RMK AO2 SLP184 T02110039
Loading
Personal Weather Stations






























Interactive Weather Map
Tropical Storm Tracking
New forecast layout! Learn more

10-Day Weather Forecast

Advertisements
Track Severe Weather on mobile